• Join FlightAware (Why Join?)
  • Login
  • US Flag 
 
06:00PM EST


 

Airport Tracker/Info


-or-


 

Live Flight TrackerFlight Track Log ✈ CTL17 ✈ 07-May-2013 ✈ KPTK - KMBS

Flight Track Log - Related Links

Times and Time Zones

All times are in EDT time to prevent confusion due to time zone crossing. See the CTL17 flight status page for this flight to view local times or setup timezone preferences in your user account.

Time Position Orientation Groundspeed Altitude Reporting Facility
EDT Latitude Longitude Course Direction KTS MPH feet Rate Location/Type
03:57PM 42.6653 -83.4069 49° Northeast 105 121 1,500  Level Cleveland Center
03:58PM 42.6847 -83.3767 49° Northeast 137 158 2,400 780 Climbing Cleveland Center
03:59PM 42.7267 -83.3644 12° North 153 176 3,300 780 Climbing Cleveland Center
04:01PM 42.7722 -83.3796 346° North  Level FlightAware Approximate
04:08PM 42.9969 -83.4732 321° Northwest  Level FlightAware Approximate
04:09PM 43.0243 -83.5034 321° Northwest  Level FlightAware Approximate
04:10PM 43.0517 -83.5337 321° Northwest  Level FlightAware Approximate
04:11PM 43.0790 -83.5639 321° Northwest  Level FlightAware Approximate
04:12PM 43.1064 -83.5942 321° Northwest  Level FlightAware Approximate
04:13PM 43.1337 -83.6245 321° Northwest  Level FlightAware Approximate
04:14PM 43.1611 -83.6549 321° Northwest  Level FlightAware Approximate
04:15PM 43.1884 -83.6852 321° Northwest  Level FlightAware Approximate
04:16PM 43.2157 -83.7156 321° Northwest  Level FlightAware Approximate
04:17PM 43.2421 -83.7476 318° Northwest  Level FlightAware Approximate
04:18PM 43.2684 -83.7797 318° Northwest  Level FlightAware Approximate
04:19PM 43.2947 -83.8118 318° Northwest  Level FlightAware Approximate
04:20PM 43.3209 -83.8440 318° Northwest  Level FlightAware Approximate
04:21PM 43.3472 -83.8761 318° Northwest  Level FlightAware Approximate
04:22PM 43.3741 -83.9074 324° Northwest  Level FlightAware Approximate
04:23PM 43.4025 -83.9358 324° Northwest  Level FlightAware Approximate
04:24PM 43.4310 -83.9642 324° Northwest  Level FlightAware Approximate
04:25PM 43.4595 -83.9927 324° Northwest  Level FlightAware Approximate
04:26PM 43.4879 -84.0212 324° Northwest  Level FlightAware Approximate
04:27PM 43.5115 -84.0563 305° West  Level FlightAware Approximate
04:28PM 43.5167 -84.0667 305° West  Level FlightAware Approximate